TMO weather

Tumeremo Airport
BolĂ­var, Venezuela

Public forecast

Using degrees Celsius for public forecast. Weather courtesy of forecast.io.

METAR (pilot weather report)

Report is more than 6 hours old.

Retrieved 2015/01/29 12:00 UTC (5 years ago):

SVTM 291200Z NI SVPA 291200 /////KT 9999 FEW013 25/22 Q1011

TAF (pilot weather forecast)

Forecast is more than 12 hours old.

Closest forecast is Kamarang Airport, 99.4 nm (184.1 km) SSE. Retrieved 2019/09/21 12:00 UTC (22 hours ago):

TAF SYKM 211100Z 2112/2123 05006KT 9999 BKN016 BKN040 TEMPO 2116/2122 6000 SHRA FEW015CB